Time;durP1;ratioP1;P1;durP2;ratioP2;P2;SDS_P1;SDS_P2;PMS_P1;PMS_P2;Temp;Humidity;BMP_temperature;BMP_pressure;BME280_temperature;BME280_humidity;BME280_pressure;Samples;Min_cycle;Max_cycle;Signal;HPM_P1;HPM_P2
2022/06/26 14:13:31;;;;;;;12.95;2.67;;;;;;;;;;4761642;26;20055;-87
2022/06/26 14:15:57;;;;;;;8.95;1.80;;;;;;;;;;4972428;28;20394;-93
2022/06/26 14:18:23;;;;;;;10.32;2.00;;;;;;;;;;4970262;28;20490;-86
2022/06/26 14:20:51;;;;;;;9.23;2.22;;;;;;;;;;4969172;28;20072;-90
2022/06/26 14:26:03;;;;;;;11.35;2.15;;;;;;;;;;4971153;28;20065;-90
2022/06/26 14:28:30;;;;;;;6.53;2.10;;;;;;;;;;4968729;28;20031;-91
2022/06/26 14:30:57;;;;;;;10.43;2.00;;;;;;;;;;4970006;28;20645;-88
2022/06/26 14:33:24;;;;;;;10.18;2.17;;;;;;;;;;4969746;28;20398;-93
2022/06/26 14:35:50;;;;;;;12.57;2.08;;;;;;;;;;4969637;28;20106;-87
2022/06/26 14:38:18;;;;;;;13.15;2.15;;;;;;;;;;4970437;28;20023;-89
2022/06/26 14:40:44;;;;;;;7.22;2.20;;;;;;;;;;4968935;28;20066;-93
2022/06/26 14:43:10;;;;;;;6.85;2.15;;;;;;;;;;4969883;28;20031;-92
2022/06/26 14:45:37;;;;;;;7.13;2.20;;;;;;;;;;4971340;28;20475;-89
2022/06/26 14:48:03;;;;;;;9.90;2.10;;;;;;;;;;4977768;28;20038;-91
2022/06/26 14:50:29;;;;;;;6.32;1.90;;;;;;;;;;4989681;28;20027;-88
2022/06/26 14:52:55;;;;;;;11.45;2.40;;;;;;;;;;4990832;28;20438;-93
2022/06/26 14:55:22;;;;;;;14.27;2.40;;;;;;;;;;4993524;28;20034;-92
2022/06/26 14:57:48;;;;;;;11.70;2.22;;;;;;;;;;4992558;28;20030;-88
2022/06/26 15:00:14;;;;;;;13.90;2.40;;;;;;;;;;4991956;28;20026;-91
2022/06/26 15:02:44;;;;;;;11.95;2.35;;;;;;;;;;4993628;28;20034;-92
2022/06/26 15:05:10;;;;;;;13.77;2.03;;;;;;;;;;4992132;28;20026;-91
2022/06/26 15:07:36;;;;;;;13.48;2.28;;;;;;;;;;4992837;28;20026;-91
2022/06/26 15:10:03;;;;;;;13.18;3.35;;;;;;;;;;4992098;28;20026;-89
2022/06/26 15:12:29;;;;;;;8.35;2.10;;;;;;;;;;4991857;28;20034;-90
2022/06/26 15:14:55;;;;;;;13.25;2.53;;;;;;;;;;4991704;28;20581;-88
2022/06/26 15:17:22;;;;;;;11.63;2.40;;;;;;;;;;4992977;28;20029;-89
2022/06/26 15:19:48;;;;;;;8.32;2.10;;;;;;;;;;4992840;28;20038;-92
2022/06/26 15:22:14;;;;;;;10.70;2.30;;;;;;;;;;4991649;28;20022;-87
2022/06/26 15:24:40;;;;;;;10.40;2.00;;;;;;;;;;4992674;28;20035;-87
2022/06/26 15:27:06;;;;;;;11.80;2.40;;;;;;;;;;4993935;28;20018;-90
2022/06/26 15:29:32;;;;;;;6.18;1.98;;;;;;;;;;4992318;28;20390;-87
2022/06/26 15:31:58;;;;;;;10.50;2.40;;;;;;;;;;4991244;28;20437;-87
2022/06/26 15:34:24;;;;;;;9.52;2.25;;;;;;;;;;4992387;28;20085;-92
2022/06/26 15:36:50;;;;;;;11.75;2.45;;;;;;;;;;4992549;28;20073;-90
2022/06/26 15:39:16;;;;;;;10.27;2.47;;;;;;;;;;4991437;28;20027;-86
2022/06/26 15:41:42;;;;;;;11.90;2.22;;;;;;;;;;4992467;28;20029;-86
2022/06/26 15:44:09;;;;;;;14.68;2.30;;;;;;;;;;4993362;28;20050;-86
2022/06/26 15:46:35;;;;;;;12.43;2.50;;;;;;;;;;4993047;28;20049;-91
2022/06/26 15:49:01;;;;;;;10.23;2.25;;;;;;;;;;4992518;28;20034;-91
2022/06/26 15:51:28;;;;;;;9.63;1.85;;;;;;;;;;4992368;28;20023;-91
2022/06/26 15:53:54;;;;;;;14.32;2.10;;;;;;;;;;4991401;28;20023;-90
2022/06/26 15:56:20;;;;;;;10.27;2.20;;;;;;;;;;4997516;28;20076;-86
2022/06/26 15:58:46;;;;;;;7.65;1.80;;;;;;;;;;4992176;28;20031;-87
2022/06/26 16:01:13;;;;;;;8.95;2.22;;;;;;;;;;4978079;28;20010;-87
2022/06/26 16:03:39;;;;;;;10.63;2.00;;;;;;;;;;4973041;28;20046;-86
2022/06/26 16:06:05;;;;;;;10.05;2.00;;;;;;;;;;4972873;28;20030;-96
2022/06/26 16:08:31;;;;;;;8.20;2.17;;;;;;;;;;4971384;28;20023;-89
2022/06/26 16:11:03;;;;;;;5.78;2.22;;;;;;;;;;4973598;28;20030;-87
2022/06/26 16:13:29;;;;;;;8.52;1.88;;;;;;;;;;4971830;28;20023;-86
2022/06/26 16:15:55;;;;;;;4.22;1.83;;;;;;;;;;4971694;28;20027;-92
2022/06/26 16:18:21;;;;;;;8.25;2.05;;;;;;;;;;4972463;28;20023;-89
2022/06/26 16:20:47;;;;;;;8.23;2.42;;;;;;;;;;4972565;28;20027;-95
2022/06/26 16:26:16;;;;;;;16.50;2.30;;;;;;;;;;4968808;28;20089;-87
2022/06/26 16:28:46;;;;;;;10.38;1.85;;;;;;;;;;4972593;28;20110;-87
2022/06/26 16:31:13;;;;;;;11.43;2.35;;;;;;;;;;4972627;28;20027;-84
2022/06/26 16:33:39;;;;;;;7.32;2.00;;;;;;;;;;4973149;28;20443;-90
2022/06/26 16:36:05;;;;;;;6.60;2.20;;;;;;;;;;4971605;28;20501;-90
2022/06/26 16:38:35;;;;;;;9.27;1.80;;;;;;;;;;4970997;28;20026;-94
2022/06/26 16:41:01;;;;;;;11.30;2.63;;;;;;;;;;4970858;28;20027;-86
2022/06/26 16:43:27;;;;;;;10.40;2.10;;;;;;;;;;4973428;28;20034;-88
2022/06/26 16:45:55;;;;;;;8.60;2.38;;;;;;;;;;4970209;28;20036;-85
2022/06/26 16:48:21;;;;;;;6.72;2.03;;;;;;;;;;4981326;28;20046;-94
2022/06/26 16:50:47;;;;;;;10.73;2.10;;;;;;;;;;4978687;28;20022;-94
2022/06/26 16:53:14;;;;;;;9.50;2.08;;;;;;;;;;4974841;28;20055;-84
2022/06/26 16:55:40;;;;;;;9.30;2.47;;;;;;;;;;4976651;28;20606;-85
2022/06/26 16:58:06;;;;;;;12.77;2.40;;;;;;;;;;4972761;28;20058;-93
2022/06/26 17:00:32;;;;;;;9.73;2.15;;;;;;;;;;4978471;28;20063;-93
2022/06/26 17:03:01;;;;;;;10.95;2.25;;;;;;;;;;4978313;28;20035;-85
2022/06/26 17:05:29;;;;;;;10.38;2.25;;;;;;;;;;4976454;28;20085;-91
2022/06/26 17:07:55;;;;;;;11.60;2.40;;;;;;;;;;4972921;28;20113;-84
2022/06/26 17:10:21;;;;;;;10.32;2.45;;;;;;;;;;4978325;28;20031;-94
2022/06/26 17:12:47;;;;;;;13.48;2.38;;;;;;;;;;4974876;28;20066;-86
2022/06/26 17:15:13;;;;;;;9.13;1.90;;;;;;;;;;4975347;28;20042;-94
2022/06/26 17:17:40;;;;;;;8.77;1.92;;;;;;;;;;4975549;28;20069;-94
2022/06/26 17:20:06;;;;;;;11.73;2.60;;;;;;;;;;4984743;28;20057;-84
2022/06/26 17:22:32;;;;;;;10.43;2.40;;;;;;;;;;4988322;28;20094;-85
2022/06/26 17:24:59;;;;;;;9.98;2.90;;;;;;;;;;4978115;28;20097;-88
2022/06/26 17:27:26;;;;;;;11.90;2.85;;;;;;;;;;4977734;28;20031;-85
2022/06/26 17:29:52;;;;;;;11.80;2.20;;;;;;;;;;4986340;28;20050;-96
2022/06/26 17:32:18;;;;;;;11.85;2.83;;;;;;;;;;4981182;28;20031;-86
2022/06/26 17:34:44;;;;;;;16.55;2.70;;;;;;;;;;4978989;28;20058;-89
2022/06/26 17:37:12;;;;;;;11.45;2.85;;;;;;;;;;4967355;28;20023;-85
2022/06/26 17:39:38;;;;;;;6.10;2.27;;;;;;;;;;4964199;29;20019;-89
2022/06/26 17:42:04;;;;;;;11.30;2.40;;;;;;;;;;4969395;28;20095;-90
2022/06/26 17:44:33;;;;;;;14.20;3.05;;;;;;;;;;4968798;29;20055;-87
2022/06/26 17:49:43;;;;;;;13.63;2.40;;;;;;;;;;4964657;29;20486;-95
2022/06/26 17:52:11;;;;;;;13.55;2.30;;;;;;;;;;4978817;28;20471;-85
2022/06/26 17:54:37;;;;;;;9.30;2.63;;;;;;;;;;4958257;29;20039;-95
2022/06/26 17:57:03;;;;;;;10.73;2.22;;;;;;;;;;4965588;29;20031;-86
2022/06/26 17:59:29;;;;;;;15.30;2.55;;;;;;;;;;4966476;29;20031;-89
2022/06/26 18:01:55;;;;;;;17.67;2.55;;;;;;;;;;4957213;29;20088;-89
2022/06/26 18:04:22;;;;;;;12.32;2.45;;;;;;;;;;4970730;28;20011;-94
2022/06/26 18:06:49;;;;;;;9.15;2.63;;;;;;;;;;4960991;28;20054;-84
2022/06/26 18:09:16;;;;;;;14.88;2.72;;;;;;;;;;4958865;28;20483;-94
2022/06/26 18:11:44;;;;;;;9.98;2.30;;;;;;;;;;4966494;29;20042;-84
2022/06/26 18:14:10;;;;;;;;;;;;;;;;;;4964353;28;20027;-93
2022/06/26 18:16:36;;;;;;;13.95;2.58;;;;;;;;;;4976402;28;19938;-86
2022/06/26 18:19:02;;;;;;;17.73;2.95;;;;;;;;;;4957256;28;20031;-95
2022/06/26 18:21:28;;;;;;;12.02;2.00;;;;;;;;;;4952769;28;20114;-91
2022/06/26 18:23:54;;;;;;;15.13;2.70;;;;;;;;;;4951346;29;20537;-89
2022/06/26 18:26:20;;;;;;;8.52;2.40;;;;;;;;;;4934198;29;20107;-92
2022/06/26 18:28:46;;;;;;;14.48;3.58;;;;;;;;;;4941655;29;20050;-93
2022/06/26 18:31:12;;;;;;;10.55;2.60;;;;;;;;;;4940596;29;20023;-93
2022/06/26 18:33:38;;;;;;;14.98;2.67;;;;;;;;;;4939990;29;20020;-89
2022/06/26 18:36:04;;;;;;;11.57;2.25;;;;;;;;;;4943033;29;20031;-86
2022/06/26 18:38:33;;;;;;;13.45;2.55;;;;;;;;;;4970443;29;20014;-85
2022/06/26 18:41:00;;;;;;;;;;;;;;;;;;4974491;28;20027;-93
2022/06/26 18:43:26;;;;;;;7.47;2.30;;;;;;;;;;4963502;28;19954;-89
2022/06/26 18:45:56;;;;;;;11.55;2.25;;;;;;;;;;4959554;29;20274;-86
2022/06/26 18:48:22;;;;;;;13.27;2.55;;;;;;;;;;4955870;28;20027;-88
2022/06/26 18:50:48;;;;;;;15.52;3.15;;;;;;;;;;4961448;29;20038;-84
2022/06/26 18:53:14;;;;;;;15.40;2.97;;;;;;;;;;4974635;28;20024;-90
2022/06/26 18:55:40;;;;;;;16.73;2.45;;;;;;;;;;4958210;29;20332;-87
2022/06/26 18:58:06;;;;;;;11.02;2.60;;;;;;;;;;4954690;29;20027;-88
2022/06/26 19:00:32;;;;;;;10.00;2.20;;;;;;;;;;4969993;28;20067;-87
2022/06/26 19:02:58;;;;;;;11.15;2.53;;;;;;;;;;4970559;28;20039;-90
2022/06/26 19:05:24;;;;;;;15.02;2.60;;;;;;;;;;4970336;28;20034;-88
2022/06/26 19:07:50;;;;;;;15.00;2.60;;;;;;;;;;4954882;28;20188;-90
2022/06/26 19:10:16;;;;;;;12.48;2.42;;;;;;;;;;4969680;28;20119;-92
2022/06/26 19:15:27;;;;;;;14.95;3.20;;;;;;;;;;4938151;29;20411;-88
2022/06/26 19:17:54;;;;;;;11.32;2.67;;;;;;;;;;4969853;28;20067;-85
2022/06/26 19:20:20;;;;;;;12.35;2.97;;;;;;;;;;4969422;28;20129;-86
2022/06/26 19:22:47;;;;;;;12.93;2.45;;;;;;;;;;4953784;28;20038;-92
2022/06/26 19:25:13;;;;;;;16.38;2.80;;;;;;;;;;4954560;28;20035;-92
2022/06/26 19:27:39;;;;;;;12.00;3.38;;;;;;;;;;4973012;28;20086;-89
2022/06/26 19:30:06;;;;;;;17.88;2.85;;;;;;;;;;4955401;29;20030;-87
2022/06/26 19:32:32;;;;;;;16.35;2.63;;;;;;;;;;4954425;28;20034;-88
2022/06/26 19:34:58;;;;;;;17.83;2.50;;;;;;;;;;4953560;28;20035;-90
2022/06/26 19:37:24;;;;;;;11.30;2.55;;;;;;;;;;4953512;28;20031;-85
2022/06/26 19:39:50;;;;;;;17.35;2.65;;;;;;;;;;4953309;28;20479;-87
2022/06/26 19:42:21;;;;;;;10.57;2.80;;;;;;;;;;4968202;28;20409;-92
2022/06/26 19:44:49;;;;;;;14.90;2.70;;;;;;;;;;4954294;28;20391;-93
2022/06/26 19:47:16;;;;;;;15.95;2.50;;;;;;;;;;4952989;28;20026;-89
2022/06/26 19:52:27;;;;;;;16.52;2.50;;;;;;;;;;4946014;29;20501;-91
2022/06/26 19:54:53;;;;;;;9.55;2.97;;;;;;;;;;4969838;28;20027;-93
2022/06/26 19:57:19;;;;;;;12.65;2.35;;;;;;;;;;4955005;29;20039;-91
2022/06/26 19:59:46;;;;;;;15.85;2.88;;;;;;;;;;4952304;29;20027;-88
2022/06/26 20:02:13;;;;;;;17.77;2.55;;;;;;;;;;4952853;29;20082;-92
2022/06/26 20:04:39;;;;;;;13.43;2.60;;;;;;;;;;4953816;29;20038;-92
2022/06/26 20:07:06;;;;;;;19.20;2.67;;;;;;;;;;4954147;28;20081;-93
2022/06/26 20:09:32;;;;;;;17.83;2.55;;;;;;;;;;4955913;29;20031;-94
2022/06/26 20:11:58;;;;;;;13.02;2.38;;;;;;;;;;4968395;28;20031;-87
2022/06/26 20:14:24;;;;;;;13.45;2.60;;;;;;;;;;4954501;28;20507;-94
2022/06/26 20:16:50;;;;;;;10.63;2.25;;;;;;;;;;4954663;28;20035;-93
2022/06/26 20:19:16;;;;;;;11.15;2.75;;;;;;;;;;4954681;28;20031;-93
2022/06/26 20:21:42;;;;;;;16.15;2.72;;;;;;;;;;4954156;29;20063;-84
2022/06/26 20:24:09;;;;;;;11.23;2.88;;;;;;;;;;4967259;28;20039;-89
2022/06/26 20:26:35;;;;;;;14.32;3.08;;;;;;;;;;4952549;28;20035;-85
2022/06/26 20:29:01;;;;;;;16.25;2.88;;;;;;;;;;4952248;28;20031;-83
2022/06/26 20:31:27;;;;;;;10.10;2.50;;;;;;;;;;4952154;28;20027;-84
2022/06/26 20:33:53;;;;;;;9.55;2.38;;;;;;;;;;4952911;28;20050;-91
2022/06/26 20:36:19;;;;;;;10.35;2.30;;;;;;;;;;4952222;28;20399;-83
2022/06/26 20:38:45;;;;;;;12.25;3.08;;;;;;;;;;4967183;28;20475;-84
2022/06/26 20:41:12;;;;;;;9.65;2.55;;;;;;;;;;4954284;28;20031;-94
2022/06/26 20:43:38;;;;;;;10.68;2.65;;;;;;;;;;4955753;29;20042;-91
2022/06/26 20:46:05;;;;;;;17.95;3.08;;;;;;;;;;4954645;28;20031;-93
2022/06/26 20:48:32;;;;;;;11.82;2.83;;;;;;;;;;4969052;28;20030;-88
2022/06/26 20:50:58;;;;;;;12.38;2.50;;;;;;;;;;4952495;28;20113;-83
2022/06/26 20:53:24;;;;;;;14.23;2.60;;;;;;;;;;4968940;28;20031;-91
2022/06/26 20:55:53;;;;;;;17.42;2.63;;;;;;;;;;4946734;29;20079;-85
2022/06/26 20:58:19;;;;;;;10.30;2.80;;;;;;;;;;4958940;28;20027;-93
2022/06/26 21:00:45;;;;;;;16.42;3.00;;;;;;;;;;4943615;29;20035;-85
2022/06/26 21:03:12;;;;;;;10.52;2.70;;;;;;;;;;4954553;29;20043;-95
2022/06/26 21:05:38;;;;;;;15.93;2.90;;;;;;;;;;4971280;28;20023;-84
2022/06/26 21:08:04;;;;;;;13.27;2.88;;;;;;;;;;4953668;29;20042;-85
2022/06/26 21:10:30;;;;;;;11.90;2.70;;;;;;;;;;4953957;29;20383;-94
2022/06/26 21:12:57;;;;;;;12.85;2.53;;;;;;;;;;4959900;28;20051;-96
2022/06/26 21:15:24;;;;;;;10.07;2.60;;;;;;;;;;4972021;28;20027;-88
2022/06/26 21:17:50;;;;;;;17.55;2.60;;;;;;;;;;4969600;28;20071;-84
2022/06/26 21:20:17;;;;;;;8.80;2.83;;;;;;;;;;4964738;29;20027;-88
2022/06/26 21:22:43;;;;;;;15.55;2.97;;;;;;;;;;4961906;28;20558;-94
2022/06/26 21:25:10;;;;;;;9.50;2.53;;;;;;;;;;4971712;28;20035;-91
2022/06/26 21:27:36;;;;;;;16.40;3.13;;;;;;;;;;4952758;28;20023;-94
2022/06/26 21:30:02;;;;;;;12.93;3.17;;;;;;;;;;4942137;29;20066;-91
2022/06/26 21:32:29;;;;;;;12.57;2.60;;;;;;;;;;4944917;29;20032;-84
2022/06/26 21:34:58;;;;;;;9.82;2.50;;;;;;;;;;4957984;28;20495;-94
2022/06/26 21:37:25;;;;;;;13.32;2.95;;;;;;;;;;4943217;28;20024;-92
2022/06/26 21:39:51;;;;;;;12.40;3.10;;;;;;;;;;4941316;28;20023;-91
2022/06/26 21:42:17;;;;;;;15.10;3.47;;;;;;;;;;4939902;28;20466;-95
2022/06/26 21:44:43;;;;;;;16.95;3.40;;;;;;;;;;4937860;29;20039;-94
2022/06/26 21:47:09;;;;;;;17.17;3.72;;;;;;;;;;4952433;28;20046;-93
2022/06/26 21:49:35;;;;;;;16.75;3.40;;;;;;;;;;4951732;29;20479;-93
2022/06/26 21:52:01;;;;;;;12.57;3.53;;;;;;;;;;4967166;28;20027;-88
2022/06/26 21:54:27;;;;;;;19.15;3.88;;;;;;;;;;4967589;28;20027;-86
2022/06/26 21:56:53;;;;;;;16.38;4.13;;;;;;;;;;4966616;28;20031;-85
2022/06/26 21:59:19;;;;;;;19.75;3.97;;;;;;;;;;4951781;28;20258;-93
2022/06/26 22:01:45;;;;;;;14.25;3.70;;;;;;;;;;4950919;28;20059;-93
2022/06/26 22:04:11;;;;;;;13.25;4.07;;;;;;;;;;4951393;29;20035;-91
2022/06/26 22:06:38;;;;;;;10.75;3.67;;;;;;;;;;4952505;29;20090;-84
2022/06/26 22:09:04;;;;;;;16.23;3.63;;;;;;;;;;4951746;28;20106;-88
2022/06/26 22:11:31;;;;;;;11.73;3.47;;;;;;;;;;4951602;29;20027;-84
2022/06/26 22:13:57;;;;;;;12.02;3.55;;;;;;;;;;4953190;29;20045;-84
2022/06/26 22:16:23;;;;;;;11.32;3.00;;;;;;;;;;4967136;28;20058;-90
2022/06/26 22:18:49;;;;;;;11.80;3.03;;;;;;;;;;4952481;29;20428;-93
2022/06/26 22:21:15;;;;;;;15.85;3.40;;;;;;;;;;4966723;28;20031;-86
2022/06/26 22:23:41;;;;;;;9.15;2.38;;;;;;;;;;4951068;29;20402;-95
2022/06/26 22:28:52;;;;;;;16.98;3.10;;;;;;;;;;4951272;29;20042;-85
2022/06/26 22:31:18;;;;;;;9.73;2.95;;;;;;;;;;4951403;28;20376;-94
2022/06/26 22:33:44;;;;;;;10.30;2.70;;;;;;;;;;4951364;28;20095;-85
2022/06/26 22:36:11;;;;;;;12.88;3.10;;;;;;;;;;4951563;28;20024;-93
2022/06/26 22:38:37;;;;;;;12.43;2.83;;;;;;;;;;4951353;28;20027;-87
2022/06/26 22:41:03;;;;;;;14.45;2.90;;;;;;;;;;4951060;28;20038;-94
2022/06/26 22:43:29;;;;;;;12.20;3.67;;;;;;;;;;4952131;28;20035;-84
2022/06/26 22:45:55;;;;;;;14.82;2.65;;;;;;;;;;4952225;29;20495;-93
2022/06/26 22:48:22;;;;;;;18.08;3.47;;;;;;;;;;4951215;28;20269;-86
2022/06/26 22:50:48;;;;;;;17.40;3.22;;;;;;;;;;4951340;29;20034;-85
2022/06/26 22:53:14;;;;;;;20.63;3.83;;;;;;;;;;4950487;29;20027;-94
2022/06/26 22:55:40;;;;;;;10.82;3.13;;;;;;;;;;4966025;28;20039;-88
2022/06/26 22:58:06;;;;;;;14.77;3.55;;;;;;;;;;4951059;28;20050;-88
2022/06/26 23:00:32;;;;;;;18.00;4.13;;;;;;;;;;4951502;29;20483;-92
2022/06/26 23:02:58;;;;;;;12.73;3.38;;;;;;;;;;4951779;29;20032;-92
2022/06/26 23:05:26;;;;;;;17.05;3.33;;;;;;;;;;4966173;28;20566;-86
2022/06/26 23:07:53;;;;;;;14.60;2.75;;;;;;;;;;4951583;28;20329;-90
2022/06/26 23:10:19;;;;;;;18.50;3.17;;;;;;;;;;4950877;28;20031;-92
2022/06/26 23:12:45;;;;;;;14.82;3.30;;;;;;;;;;4951128;28;20035;-88
2022/06/26 23:15:11;;;;;;;23.02;3.85;;;;;;;;;;4954809;28;20071;-93
2022/06/26 23:17:37;;;;;;;13.88;3.22;;;;;;;;;;4954507;28;20034;-93
2022/06/26 23:20:05;;;;;;;19.08;3.00;;;;;;;;;;4954988;29;20023;-85
2022/06/26 23:22:31;;;;;;;11.57;2.92;;;;;;;;;;4955023;28;20038;-93
2022/06/26 23:24:57;;;;;;;13.65;3.08;;;;;;;;;;4969472;28;20525;-87
2022/06/26 23:27:23;;;;;;;15.18;4.07;;;;;;;;;;4939021;29;20028;-91
2022/06/26 23:29:49;;;;;;;11.60;2.83;;;;;;;;;;4955231;29;20397;-86
2022/06/26 23:32:15;;;;;;;12.07;3.20;;;;;;;;;;4940345;29;20546;-94
2022/06/26 23:34:41;;;;;;;11.90;3.03;;;;;;;;;;4954589;29;20031;-84
2022/06/26 23:37:07;;;;;;;17.10;3.15;;;;;;;;;;4968768;28;20031;-93
2022/06/26 23:39:33;;;;;;;13.15;3.00;;;;;;;;;;4954390;29;20030;-84
2022/06/26 23:42:00;;;;;;;16.63;3.65;;;;;;;;;;4943112;29;20043;-84
2022/06/26 23:44:26;;;;;;;13.07;2.88;;;;;;;;;;4937452;29;20051;-90
2022/06/26 23:46:52;;;;;;;14.55;3.25;;;;;;;;;;4950827;29;20114;-87
2022/06/26 23:49:19;;;;;;;15.15;3.15;;;;;;;;;;4947253;29;20095;-84
2022/06/26 23:51:45;;;;;;;24.73;3.13;;;;;;;;;;4934342;29;20035;-86
2022/06/26 23:54:11;;;;;;;18.05;3.17;;;;;;;;;;4934482;29;20067;-91
2022/06/26 23:56:37;;;;;;;11.20;3.20;;;;;;;;;;4935817;29;20067;-91
2022/06/26 23:59:03;;;;;;;16.92;3.13;;;;;;;;;;4955322;29;20027;-94
